createdAt,value
2016-08-30T00:00:24.291Z,61.14
2016-08-30T00:01:23.562Z,60.46
2016-08-30T00:02:24.024Z,60.56
2016-08-30T00:03:24.047Z,60.75
2016-08-30T00:04:25.350Z,60.75
2016-08-30T00:05:23.186Z,60.94
2016-08-30T00:06:23.833Z,60.94
2016-08-30T00:07:23.788Z,60.94
2016-08-30T00:08:23.747Z,61.04
2016-08-30T00:09:23.697Z,61.04
2016-08-30T00:10:23.658Z,61.04
2016-08-30T00:11:23.809Z,61.04
2016-08-30T00:12:23.557Z,61.71
2016-08-30T00:13:23.713Z,61.81
2016-08-30T00:14:23.489Z,61.91
2016-08-30T00:15:23.437Z,61.71
2016-08-30T00:16:23.382Z,62
2016-08-30T00:17:23.338Z,61.81
2016-08-30T00:18:23.301Z,61.91
2016-08-30T00:19:23.453Z,61.81
2016-08-30T00:20:23.198Z,62
2016-08-30T00:21:23.156Z,61.61
2016-08-30T00:22:23.308Z,62
2016-08-30T00:23:23.059Z,61.91
2016-08-30T00:24:23.019Z,62
2016-08-30T00:25:22.976Z,61.91
2016-08-30T00:26:22.928Z,61.52
2016-08-30T00:27:22.874Z,62.19
2016-08-30T00:28:23.038Z,62
2016-08-30T00:29:22.797Z,62.48
2016-08-30T00:30:22.747Z,62.29
2016-08-30T00:31:22.006Z,62.48
2016-08-30T00:32:22.657Z,62.58
2016-08-30T00:33:22.806Z,62.38
2016-08-30T00:34:22.066Z,62.38
2016-08-30T00:35:22.526Z,62
2016-08-30T00:36:22.681Z,62.1
2016-08-30T00:37:22.462Z,62.1
2016-08-30T00:38:21.677Z,62.1
2016-08-30T00:39:22.347Z,62.48
2016-08-30T00:40:22.288Z,62.38
2016-08-30T00:41:22.258Z,62.19
2016-08-30T00:42:21.491Z,62.1
2016-08-30T00:43:22.179Z,62.19
2016-08-30T00:44:22.112Z,62.77
2016-08-30T00:45:22.068Z,62.68
2016-08-30T00:46:22.027Z,62.68
2016-08-30T00:47:21.989Z,62.87
2016-08-30T00:48:21.968Z,62.96
2016-08-30T00:49:21.899Z,62.77
2016-08-30T00:50:21.305Z,62.1
2016-08-30T00:51:21.797Z,62.58
2016-08-30T00:52:21.041Z,62.58
2016-08-30T00:53:21.697Z,62.58
2016-08-30T00:54:21.662Z,62.58
2016-08-30T00:55:20.917Z,63.25
2016-08-30T00:56:21.556Z,63.64
2016-08-30T00:57:21.517Z,63.6
2016-08-30T00:58:21.679Z,63.6
2016-08-30T00:59:20.728Z,63.54
2016-08-30T01:00:21.466Z,63.32
2016-08-30T01:01:21.343Z,63.6
2016-08-30T01:02:21.304Z,63.54
2016-08-30T01:03:21.247Z,63.54
2016-08-30T01:04:21.196Z,63.73
2016-08-30T01:05:21.157Z,64.02
2016-08-30T01:06:21.306Z,64.18
2016-08-30T01:07:21.060Z,63.89
2016-08-30T01:08:21.041Z,64.02
2016-08-30T01:09:20.973Z,64.18
2016-08-30T01:10:21.288Z,64.85
2016-08-30T01:11:20.886Z,64.37
2016-08-30T01:12:20.138Z,65.23
2016-08-30T01:13:20.786Z,65.23
2016-08-30T01:14:20.747Z,64.95
2016-08-30T01:15:21.206Z,65.14
2016-08-30T01:16:20.645Z,65.14
2016-08-30T01:17:20.608Z,65.23
2016-08-30T01:18:20.757Z,65.43
2016-08-30T01:19:19.815Z,65.62
2016-08-30T01:20:20.867Z,66.1
2016-08-30T01:21:20.626Z,66.1
2016-08-30T01:22:19.682Z,66.3
2016-08-30T01:23:20.325Z,66.26
2016-08-30T01:24:20.296Z,66.26
2016-08-30T01:25:20.840Z,66.3
2016-08-30T01:26:20.207Z,65.81
2016-08-30T01:27:20.149Z,65.53
2016-08-30T01:28:20.106Z,66.1
2016-08-30T01:29:20.257Z,65.81
2016-08-30T01:30:20.206Z,66.3
2016-08-30T01:31:19.968Z,66.49
2016-08-30T01:32:19.418Z,66.16
2016-08-30T01:33:20.277Z,66.16
2016-08-30T01:34:20.230Z,66.16
2016-08-30T01:35:20.183Z,66.07
2016-08-30T01:36:19.736Z,66.26
2016-08-30T01:37:19.693Z,66.36
2016-08-30T01:38:19.893Z,66.16
2016-08-30T01:39:19.810Z,65.97
2016-08-30T01:40:19.552Z,66.36
2016-08-30T01:41:19.506Z,66.26
2016-08-30T01:42:19.850Z,66.55
2016-08-30T01:43:19.627Z,66.46
2016-08-30T01:44:19.366Z,66.16
2016-08-30T01:45:19.336Z,65.88
2016-08-30T01:46:19.288Z,65.91
2016-08-30T01:47:19.247Z,66.26
2016-08-30T01:48:19.191Z,65.88
2016-08-30T01:49:19.134Z,66.16
2016-08-30T01:50:19.108Z,66.07
2016-08-30T01:51:19.048Z,65.97
2016-08-30T01:52:18.998Z,65.88
2016-08-30T01:53:18.967Z,65.69
2016-08-30T01:54:18.939Z,65.97
2016-08-30T01:55:18.178Z,66.16
2016-08-30T01:56:18.819Z,66.26
2016-08-30T01:57:18.773Z,66.84
2016-08-30T01:58:18.049Z,66.64
2016-08-30T01:59:18.684Z,66.16
2016-08-30T02:00:18.635Z,66.16
2016-08-30T02:01:18.589Z,66.16
2016-08-30T02:02:18.547Z,66.46
2016-08-30T02:03:18.698Z,66.16
2016-08-30T02:04:18.448Z,66.36
2016-08-30T02:05:18.400Z,66.55
2016-08-30T02:06:18.358Z,66.42
2016-08-30T02:07:18.307Z,66.84
2016-08-30T02:08:18.298Z,66.84
2016-08-30T02:09:18.427Z,66.74
2016-08-30T02:10:17.498Z,66.16
2016-08-30T02:11:18.130Z,66.16
2016-08-30T02:12:18.087Z,66.07
2016-08-30T02:13:18.037Z,66.26
2016-08-30T02:14:17.287Z,66.64
2016-08-30T02:15:18.122Z,66.55
2016-08-30T02:16:17.898Z,66.46
2016-08-30T02:17:18.047Z,67
2016-08-30T02:18:18.214Z,67
2016-08-30T02:19:17.758Z,66.8
2016-08-30T02:20:17.227Z,66.9
2016-08-30T02:21:17.723Z,66.8
2016-08-30T02:22:17.627Z,66.71
2016-08-30T02:23:17.787Z,66.46
2016-08-30T02:24:17.523Z,66.55
2016-08-30T02:25:17.688Z,66.26
2016-08-30T02:26:17.638Z,66.36
2016-08-30T02:27:17.392Z,66.16
2016-08-30T02:28:17.548Z,66.26
2016-08-30T02:29:17.298Z,65.97
2016-08-30T02:30:17.247Z,66.36
2016-08-30T02:31:17.204Z,66.26
2016-08-30T02:32:16.451Z,65.88
2016-08-30T02:33:16.408Z,65.88
2016-08-30T02:34:17.074Z,66.26
2016-08-30T02:35:17.024Z,66.26
2016-08-30T02:36:16.982Z,66.07
2016-08-30T02:37:16.928Z,66.16
2016-08-30T02:38:17.089Z,66.26
2016-08-30T02:39:16.840Z,66.84
2016-08-30T02:40:16.335Z,66.46
2016-08-30T02:41:16.747Z,66.93
2016-08-30T02:42:16.698Z,67.47
2016-08-30T02:43:16.658Z,67.29
2016-08-30T02:44:16.598Z,67.67
2016-08-30T02:45:17.078Z,67.76
2016-08-30T02:46:16.527Z,67.38
2016-08-30T02:47:16.679Z,68.15
2016-08-30T02:48:15.768Z,67.96
2016-08-30T02:49:16.587Z,68.34
2016-08-30T02:50:16.448Z,68.44
2016-08-30T02:51:16.457Z,68.79
2016-08-30T02:52:16.345Z,68.3
2016-08-30T02:53:16.423Z,68.79
2016-08-30T02:54:16.152Z,68.5
2016-08-30T02:55:16.108Z,68.44
2016-08-30T02:56:16.878Z,68.15
2016-08-30T02:57:16.007Z,68.63
2016-08-30T02:58:15.969Z,68.05
2016-08-30T02:59:15.928Z,68.34
2016-08-30T03:00:15.874Z,67.96
2016-08-30T03:01:15.324Z,68.34
2016-08-30T03:02:15.782Z,68.53
2016-08-30T03:03:15.733Z,68.53
2016-08-30T03:04:15.693Z,68.63
2016-08-30T03:05:15.701Z,68.24
2016-08-30T03:06:15.838Z,68.53
2016-08-30T03:07:15.047Z,67.86
2016-08-30T03:08:15.662Z,67.76
2016-08-30T03:09:15.471Z,67.7
2016-08-30T03:10:15.807Z,67.09
2016-08-30T03:11:15.377Z,67.51
2016-08-30T03:12:15.318Z,67.7
2016-08-30T03:13:15.269Z,67.61
2016-08-30T03:14:15.225Z,67.76
2016-08-30T03:15:15.022Z,68.24
2016-08-30T03:16:15.130Z,68.59
2016-08-30T03:17:15.094Z,69.26
2016-08-30T03:18:15.239Z,69.46
2016-08-30T03:19:15.188Z,69.07
2016-08-30T03:20:14.259Z,68.98
2016-08-30T03:21:14.909Z,69.26
2016-08-30T03:22:14.858Z,69.17
2016-08-30T03:23:14.808Z,69.93
2016-08-30T03:24:14.973Z,69.74
2016-08-30T03:25:14.717Z,69.93
2016-08-30T03:26:14.899Z,69.46
2016-08-30T03:27:14.625Z,69.56
2016-08-30T03:28:14.575Z,69.46
2016-08-30T03:29:13.859Z,69.11
2016-08-30T03:30:14.488Z,68.98
2016-08-30T03:31:14.439Z,69.01
2016-08-30T03:32:13.693Z,69.07
2016-08-30T03:33:14.547Z,69.56
2016-08-30T03:34:14.309Z,70.13
2016-08-30T03:35:14.260Z,70.48
2016-08-30T03:36:13.916Z,70.48
2016-08-30T03:37:14.159Z,70.32
2016-08-30T03:38:14.119Z,70.42
2016-08-30T03:39:13.567Z,69.93
2016-08-30T03:40:14.021Z,70.42
2016-08-30T03:41:13.679Z,70.03
2016-08-30T03:42:13.928Z,69.84
2016-08-30T03:43:13.948Z,69.36
2016-08-30T03:44:13.839Z,69.36
2016-08-30T03:45:13.872Z,69.84
2016-08-30T03:46:13.737Z,69.36
2016-08-30T03:47:13.707Z,69.84
2016-08-30T03:48:13.678Z,69.74
2016-08-30T03:49:13.666Z,69.74
2016-08-30T03:50:13.059Z,69.26
2016-08-30T03:51:13.519Z,69.74
2016-08-30T03:52:13.610Z,69.56
2016-08-30T03:53:13.618Z,70.23
2016-08-30T03:54:13.473Z,70.23
2016-08-30T03:55:13.527Z,70.19
2016-08-30T03:56:13.479Z,70.96
2016-08-30T03:57:13.239Z,70.86
2016-08-30T03:58:13.388Z,70.76
2016-08-30T03:59:13.337Z,70.48
2016-08-30T04:00:13.698Z,70.86
2016-08-30T04:01:13.048Z,70.9
2016-08-30T04:02:13.008Z,71.09
2016-08-30T04:03:12.947Z,70.99
2016-08-30T04:04:12.907Z,71.28
2016-08-30T04:05:12.918Z,71.09
2016-08-30T04:06:12.814Z,70.7
2016-08-30T04:07:12.966Z,70.57
2016-08-30T04:08:12.748Z,70.96
2016-08-30T04:09:12.699Z,71.34
2016-08-30T04:10:12.827Z,71.53
2016-08-30T04:11:12.577Z,71.44
2016-08-30T04:12:12.540Z,71.53
2016-08-30T04:13:11.784Z,71.78
2016-08-30T04:14:12.439Z,72.07
2016-08-30T04:15:11.889Z,71.88
2016-08-30T04:16:12.349Z,71.82
2016-08-30T04:17:12.298Z,72.01
2016-08-30T04:18:12.447Z,72.36
2016-08-30T04:19:12.401Z,72.17
2016-08-30T04:20:12.166Z,72.55
2016-08-30T04:21:12.319Z,72.07
2016-08-30T04:22:12.287Z,71.98
2016-08-30T04:23:12.044Z,71.92
2016-08-30T04:24:12.187Z,71.72
2016-08-30T04:25:12.152Z,71.44
2016-08-30T04:26:11.879Z,71.19
2016-08-30T04:27:11.838Z,71.05
2016-08-30T04:28:11.828Z,71.15
2016-08-30T04:29:11.739Z,71.05
2016-08-30T04:30:11.899Z,71.34
2016-08-30T04:31:11.648Z,71.25
2016-08-30T04:32:11.600Z,71.15
2016-08-30T04:33:11.557Z,71.19
2016-08-30T04:34:11.719Z,70.76
2016-08-30T04:35:11.460Z,70.9
2016-08-30T04:36:11.620Z,70.48
2016-08-30T04:37:11.369Z,71.34
2016-08-30T04:38:11.320Z,71.34
2016-08-30T04:39:10.573Z,70.96
2016-08-30T04:40:11.231Z,71.05
2016-08-30T04:41:11.381Z,70.8
2016-08-30T04:42:11.142Z,70.51
2016-08-30T04:43:11.090Z,70.8
2016-08-30T04:44:11.239Z,70.8
2016-08-30T04:45:11.016Z,71.15
2016-08-30T04:46:10.949Z,70.96
2016-08-30T04:47:10.909Z,70.51
2016-08-30T04:48:10.854Z,70.42
2016-08-30T04:49:10.804Z,70.23
2016-08-30T04:50:10.759Z,70.32
2016-08-30T04:51:10.708Z,70.32
2016-08-30T04:52:10.667Z,70.99
2016-08-30T04:53:10.626Z,70.99
2016-08-30T04:54:10.588Z,70.8
2016-08-30T04:55:10.518Z,71.15
2016-08-30T04:56:10.486Z,71.53
2016-08-30T04:57:10.499Z,71.53
2016-08-30T04:58:10.386Z,71.34
2016-08-30T04:59:10.331Z,71.72
2016-08-30T05:00:10.284Z,72.27
2016-08-30T05:01:10.247Z,72.07
2016-08-30T05:02:10.201Z,72.2
2016-08-30T05:03:10.159Z,72.01
2016-08-30T05:04:10.130Z,71.92
2016-08-30T05:05:10.086Z,72.11
2016-08-30T05:06:09.318Z,72.2
2016-08-30T05:07:09.956Z,72.39
2016-08-30T05:08:09.917Z,72.11
2016-08-30T05:09:09.890Z,72.11
2016-08-30T05:10:09.814Z,72.11
2016-08-30T05:11:09.774Z,72.11
2016-08-30T05:12:09.729Z,72.39
2016-08-30T05:13:09.883Z,71.92
2016-08-30T05:14:09.646Z,71.47
2016-08-30T05:15:09.598Z,71.34
2016-08-30T05:16:09.554Z,71.19
2016-08-30T05:17:09.509Z,71.34
2016-08-30T05:18:09.448Z,71.63
2016-08-30T05:19:09.409Z,72.3
2016-08-30T05:20:08.690Z,72.59
2016-08-30T05:21:09.532Z,72.59
2016-08-30T05:22:09.478Z,72.88
2016-08-30T05:23:09.227Z,72.59
2016-08-30T05:24:09.982Z,72.78
2016-08-30T05:25:09.328Z,72.68
2016-08-30T05:26:09.079Z,72.49
2016-08-30T05:27:09.034Z,72.59
2016-08-30T05:28:08.987Z,72.88
2016-08-30T05:29:08.949Z,73.22
2016-08-30T05:30:08.887Z,73.51
2016-08-30T05:31:08.856Z,73.61
2016-08-30T05:32:08.798Z,73.61
2016-08-30T05:33:08.756Z,73.13
2016-08-30T05:34:08.007Z,73.03
2016-08-30T05:35:07.955Z,73.51
2016-08-30T05:36:08.635Z,73.51
2016-08-30T05:37:08.765Z,73.99
2016-08-30T05:38:08.718Z,73.7
2016-08-30T05:39:08.457Z,73.9
2016-08-30T05:40:07.727Z,73.8
2016-08-30T05:41:08.371Z,73.7
2016-08-30T05:42:08.327Z,73.9
2016-08-30T05:43:08.273Z,73.8
2016-08-30T05:44:08.237Z,73.61
2016-08-30T05:45:08.185Z,73.8
2016-08-30T05:46:07.468Z,73.8
2016-08-30T05:47:08.299Z,73.99
2016-08-30T05:48:08.067Z,73.03
2016-08-30T05:49:07.991Z,73.7
2016-08-30T05:50:07.266Z,73.7
2016-08-30T05:51:07.907Z,74.02
2016-08-30T05:52:08.067Z,73.35
2016-08-30T05:53:07.813Z,73.16
2016-08-30T05:57:05.536Z,72.2
2016-08-30T05:57:57.060Z,72.05
2016-08-30T05:58:56.978Z,71.47
2016-08-30T05:59:57.866Z,71.66
2016-08-30T06:01:04.107Z,71.57
2016-08-30T06:01:56.859Z,71.47
2016-08-30T06:02:56.093Z,71.57
2016-08-30T06:03:56.060Z,70.8
2016-08-30T06:04:56.698Z,70.99
2016-08-30T06:05:55.956Z,70.7
2016-08-30T06:06:55.910Z,70.74
2016-08-30T06:07:55.883Z,70.74
2016-08-30T06:08:59.249Z,70.93
2016-08-30T06:09:56.063Z,70.45
2016-08-30T06:10:56.125Z,69.87
2016-08-30T06:11:56.789Z,69.97
2016-08-30T06:12:55.627Z,70.07
2016-08-30T06:13:55.601Z,69.87
2016-08-30T06:14:55.569Z,69.68
2016-08-30T06:15:55.491Z,69.11
2016-08-30T06:16:56.545Z,69.68
2016-08-30T06:17:55.408Z,69.87
2016-08-30T06:18:56.268Z,69.78
2016-08-30T06:19:55.309Z,69.78
2016-08-30T06:20:55.269Z,69.78
2016-08-30T06:21:55.213Z,69.68
2016-08-30T06:22:55.167Z,69.2
2016-08-30T06:23:56.277Z,69.3
2016-08-30T06:24:55.776Z,69.11
2016-08-30T06:25:56.337Z,69.01
2016-08-30T06:26:54.985Z,69.2
2016-08-30T06:27:55.137Z,69.2
2016-08-30T06:28:55.793Z,69.11
2016-08-30T06:29:54.843Z,68.76
2016-08-30T06:30:54.794Z,68.28
2016-08-30T06:31:55.447Z,68.57
2016-08-30T06:32:55.407Z,68.47
2016-08-30T06:33:54.665Z,68.18
2016-08-30T06:34:55.328Z,68.08
2016-08-30T06:35:55.269Z,68.47
2016-08-30T06:36:54.733Z,68.18
2016-08-30T06:37:54.490Z,68.95
2016-08-30T06:38:55.332Z,68.66
2016-08-30T06:39:55.299Z,69.01
2016-08-30T06:40:55.248Z,69.4
2016-08-30T06:41:54.501Z,68.91
2016-08-30T06:42:55.552Z,69.11
2016-08-30T06:43:55.120Z,69.11
2016-08-30T06:44:54.897Z,69.11
2016-08-30T06:45:54.816Z,68.73
2016-08-30T06:46:54.771Z,68.57
2016-08-30T06:47:54.019Z,68.76
2016-08-30T06:48:54.029Z,69.05
2016-08-30T06:49:53.928Z,68.57
2016-08-30T06:50:54.787Z,68.37
2016-08-30T06:51:54.034Z,68.47
2016-08-30T06:52:54.510Z,68.37
2016-08-30T06:53:53.756Z,68.57
2016-08-30T06:54:54.406Z,68.47
2016-08-30T06:55:54.348Z,68.47
2016-08-30T06:56:54.306Z,67.8
2016-08-30T06:57:54.268Z,67.7
2016-08-30T06:58:54.210Z,68.37
2016-08-30T06:59:54.172Z,68.28
2016-08-30T07:00:54.402Z,68.47
2016-08-30T07:01:54.108Z,68.37
2016-08-30T07:02:54.447Z,68.66
2016-08-30T07:03:54.597Z,68.18
2016-08-30T07:04:54.160Z,68.66
2016-08-30T07:05:54.128Z,68.28
2016-08-30T07:06:53.866Z,68.57
2016-08-30T07:07:53.817Z,67.7
2016-08-30T07:08:53.757Z,68.08
2016-08-30T07:09:53.017Z,67.99
2016-08-30T07:10:53.689Z,67.9
2016-08-30T07:11:53.831Z,68.08
2016-08-30T07:12:53.810Z,67.7
2016-08-30T07:13:54.143Z,67.51
2016-08-30T07:14:53.696Z,67.07
2016-08-30T07:15:53.659Z,67.25
2016-08-30T07:16:53.398Z,66.97
2016-08-30T07:17:53.357Z,66.77
2016-08-30T07:18:53.379Z,67.07
2016-08-30T07:19:52.798Z,66.58
2016-08-30T07:20:53.234Z,66.2
2016-08-30T07:21:53.180Z,66.23
2016-08-30T07:22:52.490Z,66.23
2016-08-30T07:23:53.229Z,66.14
2016-08-30T07:24:52.355Z,66.23
2016-08-30T07:25:53.640Z,65.94
2016-08-30T07:26:52.658Z,65.94
2016-08-30T07:27:52.931Z,66.23
2016-08-30T07:28:53.067Z,66.52
2016-08-30T07:29:53.018Z,66.33
2016-08-30T07:30:52.769Z,66.49
2016-08-30T07:31:52.729Z,65.94
2016-08-30T07:32:52.676Z,66.04
2016-08-30T07:33:52.667Z,65.94
2016-08-30T07:34:53.186Z,65.94
2016-08-30T07:35:52.769Z,66.04
2016-08-30T07:36:52.488Z,66.04
2016-08-30T07:37:51.917Z,66.42
2016-08-30T07:38:52.087Z,66.33
2016-08-30T07:39:52.368Z,65.94
2016-08-30T07:40:52.330Z,66.14
2016-08-30T07:41:52.266Z,65.56
2016-08-30T07:42:51.922Z,65.46
2016-08-30T07:43:51.616Z,65.75
2016-08-30T07:44:52.146Z,65.37
2016-08-30T07:45:52.086Z,65.5
2016-08-30T07:46:52.048Z,64.82
2016-08-30T07:47:51.359Z,64.63
2016-08-30T07:48:51.965Z,64.82
2016-08-30T07:49:52.036Z,64.63
2016-08-30T07:50:51.315Z,64.63
2016-08-30T07:51:51.826Z,64.25
2016-08-30T07:52:52.005Z,64.73
2016-08-30T07:53:51.048Z,64.34
2016-08-30T07:54:50.988Z,64.05
2016-08-30T07:55:51.673Z,64.25
2016-08-30T07:56:52.980Z,64.25
2016-08-30T07:57:54.558Z,63.76
2016-08-30T07:58:50.858Z,63.57
2016-08-30T07:59:51.489Z,63.57
2016-08-30T08:00:51.435Z,63.76
2016-08-30T08:01:51.590Z,63.09
2016-08-30T08:02:51.335Z,63.09
2016-08-30T08:03:51.527Z,62.71
2016-08-30T08:04:51.324Z,62.71
2016-08-30T08:05:51.191Z,62.45
2016-08-30T08:06:51.149Z,62.06
2016-08-30T08:07:50.583Z,61.68
2016-08-30T08:08:51.056Z,61.77
2016-08-30T08:09:51.167Z,61.49
2016-08-30T08:10:51.178Z,61.19
2016-08-30T08:11:50.932Z,61
2016-08-30T08:12:50.913Z,60.46
2016-08-30T08:13:50.968Z,60.81
2016-08-30T08:14:51.154Z,59.59
2016-08-30T08:15:50.302Z,59.2
2016-08-30T08:16:50.741Z,58.63
2016-08-30T08:17:50.605Z,58.72
2016-08-30T08:18:50.615Z,58.44
2016-08-30T08:19:50.704Z,58.24
2016-08-30T08:20:50.539Z,58.05
2016-08-30T08:21:50.509Z,57.57
2016-08-30T08:22:50.451Z,57.67
2016-08-30T08:23:50.412Z,57.47
2016-08-30T08:24:50.358Z,57.37
2016-08-30T08:25:50.359Z,57.86
2016-08-30T08:26:50.287Z,57.57
2016-08-30T08:27:50.630Z,57.47
2016-08-30T08:28:50.368Z,56.9
2016-08-30T08:29:50.220Z,56.41
2016-08-30T08:30:50.092Z,56.9
2016-08-30T08:31:50.055Z,56.22
2016-08-30T08:32:50.181Z,56.03
2016-08-30T08:33:49.944Z,56.12
2016-08-30T08:34:49.906Z,55.55
2016-08-30T08:35:49.914Z,55.19
2016-08-30T08:36:49.875Z,55.09
2016-08-30T08:37:49.791Z,55
2016-08-30T08:38:49.765Z,55.29
2016-08-30T08:39:49.675Z,55.29
2016-08-30T08:42:16.002Z,55
2016-08-30T08:43:15.036Z,54.9
2016-08-30T08:44:15.934Z,54.52
2016-08-30T08:45:19.120Z,54.32
2016-08-30T08:46:14.901Z,54.13
2016-08-30T08:47:15.529Z,54.52
2016-08-30T08:48:14.614Z,54.42
2016-08-30T08:49:14.544Z,54.52
2016-08-30T08:50:14.946Z,54.52
2016-08-30T08:51:15.168Z,54.42
2016-08-30T08:52:14.398Z,54.2
2016-08-30T08:53:14.351Z,54.3
2016-08-30T08:54:14.299Z,53.81
2016-08-30T08:55:15.311Z,53.14
2016-08-30T08:56:14.407Z,52.95
2016-08-30T08:57:14.374Z,52.85
2016-08-30T08:58:14.143Z,52.66
2016-08-30T08:59:14.980Z,52.3
2016-08-30T09:00:14.247Z,52.4
2016-08-30T09:01:14.066Z,52.69
2016-08-30T09:02:13.994Z,52.78
2016-08-30T09:03:13.912Z,52.59
2016-08-30T09:04:14.582Z,52.11
2016-08-30T09:05:14.516Z,52.3
2016-08-30T09:06:13.800Z,52.01
2016-08-30T09:07:13.746Z,52.2
2016-08-30T09:08:13.693Z,52.3
2016-08-30T09:09:13.771Z,52.2
2016-08-30T09:10:14.225Z,52.3
2016-08-30T09:11:13.728Z,52.01
2016-08-30T09:12:13.533Z,51.94
2016-08-30T09:13:14.285Z,51.46
2016-08-30T09:14:14.170Z,51.46
2016-08-30T09:15:14.174Z,51.07
2016-08-30T09:16:13.341Z,51.07
2016-08-30T09:17:13.990Z,50.88
2016-08-30T09:18:14.024Z,50.9
2016-08-30T09:19:13.290Z,50.98
2016-08-30T09:20:13.906Z,50.88
2016-08-30T09:21:13.809Z,50.9
2016-08-30T09:22:14.054Z,50.3
2016-08-30T09:23:14.358Z,50.71
2016-08-30T09:24:13.940Z,50.62
2016-08-30T09:25:13.929Z,50.71
2016-08-30T09:26:12.938Z,50.42
2016-08-30T09:27:12.872Z,50.81
2016-08-30T09:28:12.844Z,50.78
2016-08-30T09:29:13.553Z,50.42
2016-08-30T09:30:12.717Z,50.4
2016-08-30T09:31:13.579Z,50.62
2016-08-30T09:32:13.352Z,50.42
2016-08-30T09:33:13.314Z,50.81
2016-08-30T09:34:12.566Z,50.4
2016-08-30T09:35:13.196Z,50.49
2016-08-30T09:36:13.171Z,50.59
2016-08-30T09:37:12.665Z,50.42
2016-08-30T09:38:12.403Z,50.32
2016-08-30T09:39:13.249Z,49.55
2016-08-30T09:40:13.077Z,49.55
2016-08-30T09:41:12.584Z,49.07
2016-08-30T09:42:13.148Z,48.69
2016-08-30T09:43:12.885Z,47.94
2016-08-30T09:44:13.034Z,48.13
2016-08-30T09:45:12.067Z,48.23
2016-08-30T09:46:12.734Z,47.65
2016-08-30T09:47:12.002Z,47.55
2016-08-30T09:48:12.648Z,47.07
2016-08-30T09:49:12.872Z,47.27
2016-08-30T09:50:12.561Z,47.45
2016-08-30T09:51:12.573Z,47.55
2016-08-30T09:52:12.479Z,47.45
2016-08-30T09:53:12.541Z,47.45
2016-08-30T09:54:12.387Z,47.36
2016-08-30T09:55:12.429Z,47.45
2016-08-30T09:56:12.294Z,47.36
2016-08-30T09:57:12.419Z,47.36
2016-08-30T09:58:12.205Z,47.07
2016-08-30T09:59:11.751Z,46.97
2016-08-30T10:00:12.292Z,46.97
2016-08-30T10:01:12.072Z,46.69
2016-08-30T10:02:12.323Z,47.55
2016-08-30T10:03:12.019Z,47.55
2016-08-30T10:04:11.991Z,47.45
2016-08-30T10:05:11.926Z,48.03
2016-08-30T10:06:11.154Z,48.13
2016-08-30T10:07:11.120Z,48.03
2016-08-30T10:08:11.078Z,48.01
2016-08-30T10:09:11.729Z,47.85
2016-08-30T10:10:11.782Z,48.03
2016-08-30T10:11:12.255Z,48.13
2016-08-30T10:12:11.611Z,47.65
2016-08-30T10:13:11.592Z,47.55
2016-08-30T10:14:11.699Z,47.45
2016-08-30T10:15:11.608Z,46.97
2016-08-30T10:16:11.415Z,47
2016-08-30T10:17:11.371Z,46.9
2016-08-30T10:18:11.327Z,46.42
2016-08-30T10:19:11.527Z,47
2016-08-30T10:20:10.604Z,46.71
2016-08-30T10:21:11.216Z,46.51
2016-08-30T10:22:11.176Z,46.03
2016-08-30T10:23:11.276Z,46.33
2016-08-30T10:24:11.288Z,45.65
2016-08-30T10:25:11.146Z,44.97
2016-08-30T10:26:11.023Z,44.29
2016-08-30T10:27:10.946Z,43.72
2016-08-30T10:28:10.909Z,43.54
2016-08-30T10:29:10.879Z,43.26
2016-08-30T10:30:11.213Z,43.16
2016-08-30T10:31:10.107Z,43.26
2016-08-30T10:32:10.739Z,43.16
2016-08-30T10:33:10.391Z,43.16
2016-08-30T10:34:10.894Z,43.26
2016-08-30T10:35:10.692Z,43.06
2016-08-30T10:36:09.902Z,43.16
2016-08-30T10:37:10.597Z,43.04
2016-08-30T10:38:10.486Z,43.16
2016-08-30T10:39:10.444Z,42.77
2016-08-30T10:40:10.439Z,42.39
2016-08-30T10:41:10.435Z,42.48
2016-08-30T10:42:10.325Z,42.1
2016-08-30T10:43:09.659Z,42.58
2016-08-30T10:44:10.223Z,42.1
2016-08-30T10:45:09.482Z,41.42
2016-08-30T10:46:10.324Z,41.52
2016-08-30T10:47:09.405Z,41.33
2016-08-30T10:48:10.042Z,41.23
2016-08-30T10:49:10.000Z,41.33
2016-08-30T10:50:10.011Z,41.03
2016-08-30T10:51:09.977Z,40.75
2016-08-30T10:52:09.896Z,40.45
2016-08-30T10:53:09.354Z,40.36
2016-08-30T10:54:09.093Z,40.26
2016-08-30T10:55:09.787Z,39.99
2016-08-30T10:56:09.917Z,39.97
2016-08-30T10:57:09.676Z,39.9
2016-08-30T10:58:09.614Z,39.8
2016-08-30T10:59:09.579Z,39.78
2016-08-30T11:00:08.869Z,39.78
2016-08-30T11:01:08.802Z,39.61
2016-08-30T11:02:09.516Z,39.41
2016-08-30T11:03:09.446Z,39.12
2016-08-30T11:04:09.360Z,39.11
2016-08-30T11:05:09.807Z,38.91
2016-08-30T11:06:09.465Z,39.01
2016-08-30T11:07:09.421Z,38.71
2016-08-30T11:08:09.213Z,38.81
2016-08-30T11:09:09.161Z,39.01
2016-08-30T11:10:08.866Z,38.81
2016-08-30T11:11:08.553Z,38.45
2016-08-30T11:12:09.011Z,38.64
2016-08-30T11:13:09.019Z,38.43
2016-08-30T11:14:08.229Z,38.43
2016-08-30T11:15:08.932Z,38.62
2016-08-30T11:16:08.894Z,38.71
2016-08-30T11:17:08.805Z,38.54
2016-08-30T11:18:08.767Z,38.64
2016-08-30T11:19:08.784Z,38.64
2016-08-30T11:20:08.674Z,38.25
2016-08-30T11:21:08.723Z,38.35
2016-08-30T11:22:09.203Z,38.28
2016-08-30T11:23:08.561Z,38.37
2016-08-30T11:24:08.018Z,38.28
2016-08-30T11:25:08.501Z,38.37
2016-08-30T11:26:08.454Z,38.08
2016-08-30T11:27:08.692Z,38.37
2016-08-30T11:28:08.546Z,38.37
2016-08-30T11:29:08.525Z,38.46
2016-08-30T11:30:08.463Z,38.28
2016-08-30T11:31:08.224Z,38.28
2016-08-30T11:32:08.189Z,38.37
2016-08-30T11:33:08.128Z,38.37
2016-08-30T11:34:08.120Z,38.46
2016-08-30T11:35:08.796Z,38.46
2016-08-30T11:36:08.071Z,37.7
2016-08-30T11:37:07.961Z,37.6
2016-08-30T11:38:07.968Z,37.21
2016-08-30T11:39:07.875Z,37.12
2016-08-30T11:40:07.899Z,36.82
2016-08-30T11:41:07.798Z,36.72
2016-08-30T11:42:07.844Z,36.82
2016-08-30T11:43:07.715Z,36.72
2016-08-30T11:44:06.956Z,36.72
2016-08-30T11:45:07.614Z,36.44
2016-08-30T11:46:07.622Z,36.63
2016-08-30T11:47:07.542Z,36.63
2016-08-30T11:48:07.496Z,36.72
2016-08-30T11:49:07.662Z,36.72
2016-08-30T11:50:07.624Z,36.34
2016-08-30T11:51:06.665Z,36.15
2016-08-30T11:52:07.342Z,36.05
2016-08-30T11:53:07.276Z,35.95
2016-08-30T11:54:07.264Z,36.15
2016-08-30T11:55:07.195Z,35.76
2016-08-30T11:56:07.364Z,35.97
2016-08-30T11:57:07.317Z,35.58
2016-08-30T11:58:06.414Z,35.49
2016-08-30T11:59:07.040Z,35.47
2016-08-30T12:00:06.365Z,35.68
2016-08-30T12:01:06.248Z,35.49
2016-08-30T12:02:06.902Z,35.49
2016-08-30T12:03:06.361Z,35.39
2016-08-30T12:04:06.829Z,35.39
2016-08-30T12:05:07.038Z,35.86
2016-08-30T12:06:06.718Z,35.76
2016-08-30T12:07:06.685Z,35.95
2016-08-30T12:08:06.154Z,35.95
2016-08-30T12:09:05.943Z,35.58
2016-08-30T12:10:06.567Z,35.29
2016-08-30T12:11:06.534Z,35.29
2016-08-30T12:12:05.993Z,35.1
2016-08-30T12:13:05.732Z,34.83
2016-08-30T12:14:05.693Z,34.73
2016-08-30T12:15:06.469Z,34.73
2016-08-30T12:16:06.934Z,34.73
2016-08-30T12:17:06.290Z,34.73
2016-08-30T12:18:06.229Z,34.73
2016-08-30T12:19:06.222Z,34.54
2016-08-30T12:20:06.188Z,34.44
2016-08-30T12:21:06.145Z,34.54
2016-08-30T12:22:05.360Z,34.44
2016-08-30T12:23:06.025Z,34.44
2016-08-30T12:24:06.520Z,34.44
2016-08-30T12:25:06.182Z,34.73
2016-08-30T12:26:06.370Z,34.63
2016-08-30T12:27:05.157Z,34.92
2016-08-30T12:28:05.429Z,34.73
2016-08-30T12:29:05.863Z,34.83
2016-08-30T12:30:05.012Z,34.73
2016-08-30T12:31:05.701Z,34.44
2016-08-30T12:32:05.627Z,34.54
2016-08-30T12:33:05.725Z,34.44
2016-08-30T12:34:05.547Z,34.25
2016-08-30T12:35:06.614Z,34.44
2016-08-30T12:36:05.465Z,33.95
2016-08-30T12:37:05.690Z,34.05
2016-08-30T12:38:05.488Z,34.17
2016-08-30T12:39:04.760Z,33.95
2016-08-30T12:40:06.452Z,33.76
2016-08-30T12:41:05.251Z,33.67
2016-08-30T12:42:04.706Z,33.29
2016-08-30T12:43:04.476Z,32.99
2016-08-30T12:44:05.118Z,33.01
2016-08-30T12:45:05.349Z,33.18
2016-08-30T12:46:05.058Z,32.79
2016-08-30T12:47:04.994Z,33.49
2016-08-30T12:48:04.944Z,33.86
2016-08-30T12:49:04.923Z,34.05
2016-08-30T12:50:05.060Z,34.05
2016-08-30T12:51:04.823Z,33.86
2016-08-30T12:52:04.073Z,33.78
2016-08-30T12:53:04.057Z,33.76
2016-08-30T12:54:04.944Z,33.69
2016-08-30T12:55:04.687Z,33.78
2016-08-30T12:56:04.827Z,33.78
2016-08-30T12:57:04.627Z,33.78
2016-08-30T12:58:04.031Z,33.97
2016-08-30T12:59:04.506Z,33.97
2016-08-30T13:00:03.761Z,34.27